createdAt,value
2022-09-09T00:02:01.861Z,2.28
2022-09-09T00:04:39.913Z,2.13
2022-09-09T00:07:25.997Z,2.65
2022-09-09T00:10:00.655Z,2.30
2022-09-09T00:12:38.235Z,2.03
2022-09-09T00:15:16.689Z,2.30
2022-09-09T00:17:47.474Z,2.30
2022-09-09T00:20:18.186Z,2.33
2022-09-09T00:22:49.804Z,2.70
2022-09-09T00:25:20.149Z,2.25
2022-09-09T00:27:49.252Z,2.22
2022-09-09T00:30:20.781Z,2.20
2022-09-09T00:32:49.464Z,2.30
2022-09-09T00:35:24.965Z,2.63
2022-09-09T00:37:55.048Z,2.65
2022-09-09T00:40:32.682Z,2.35
2022-09-09T00:43:07.535Z,2.45
2022-09-09T00:45:35.058Z,2.67
2022-09-09T00:48:06.718Z,2.40
2022-09-09T00:50:34.236Z,2.38
2022-09-09T00:53:04.896Z,2.30
2022-09-09T00:55:33.442Z,2.42
2022-09-09T00:58:00.981Z,2.65
2022-09-09T01:00:30.166Z,2.38
2022-09-09T01:03:09.907Z,2.28
2022-09-09T01:05:37.583Z,2.00
2022-09-09T01:08:10.231Z,2.20
2022-09-09T01:10:54.391Z,2.13
2022-09-09T01:13:32.589Z,1.98
2022-09-09T01:16:07.182Z,1.98
2022-09-09T01:18:38.723Z,2.00
2022-09-09T01:21:11.414Z,1.92
2022-09-09T01:23:45.038Z,1.88
2022-09-09T01:26:38.351Z,1.80
2022-09-09T01:29:11.171Z,1.90
2022-09-09T01:31:43.382Z,1.90
2022-09-09T01:34:13.301Z,1.85
2022-09-09T01:36:41.684Z,1.98
2022-09-09T01:39:09.405Z,1.58
2022-09-09T01:41:37.729Z,1.70
2022-09-09T01:44:09.035Z,1.58
2022-09-09T01:46:38.847Z,1.88
2022-09-09T01:49:10.466Z,1.60
2022-09-09T01:51:38.947Z,1.75
2022-09-09T01:57:12.314Z,1.35
2022-09-09T01:59:53.851Z,1.70
2022-09-09T02:02:28.388Z,1.85
2022-09-09T02:05:18.854Z,1.75
2022-09-09T02:07:51.136Z,1.77
2022-09-09T02:10:57.552Z,2.17
2022-09-09T02:13:54.720Z,1.40
2022-09-09T02:16:44.447Z,1.67
2022-09-09T02:19:15.491Z,1.75
2022-09-09T02:21:59.779Z,1.65
2022-09-09T02:24:28.546Z,1.50
2022-09-09T02:27:09.850Z,1.73
2022-09-09T02:29:39.841Z,2.00
2022-09-09T02:32:09.076Z,1.40
2022-09-09T02:34:42.280Z,2.15
2022-09-09T02:37:11.307Z,1.67
2022-09-09T02:39:41.119Z,2.17
2022-09-09T02:42:15.728Z,1.73
2022-09-09T02:44:44.224Z,2.22
2022-09-09T02:47:14.568Z,1.50
2022-09-09T02:49:44.550Z,1.70
2022-09-09T02:52:35.193Z,2.05
2022-09-09T02:55:07.317Z,2.08
2022-09-09T02:57:36.856Z,1.90
2022-09-09T03:00:06.572Z,1.75
2022-09-09T03:02:35.666Z,1.60
2022-09-09T03:05:07.767Z,1.60
2022-09-09T03:07:35.949Z,1.60
2022-09-09T03:10:03.975Z,1.88
2022-09-09T03:12:31.500Z,1.60
2022-09-09T03:14:59.087Z,1.60
2022-09-09T03:17:29.142Z,2.08
2022-09-09T03:19:59.713Z,2.10
2022-09-09T03:22:27.481Z,1.80
2022-09-09T03:24:56.684Z,1.75
2022-09-09T03:27:24.164Z,1.58
2022-09-09T03:29:53.007Z,1.88
2022-09-09T03:32:26.798Z,1.85
2022-09-09T03:34:55.811Z,1.65
2022-09-09T03:37:23.728Z,1.60
2022-09-09T03:39:52.192Z,1.92
2022-09-09T03:42:20.466Z,1.52
2022-09-09T03:44:52.492Z,1.60
2022-09-09T03:47:23.692Z,2.25
2022-09-09T03:49:55.386Z,2.00
2022-09-09T03:52:25.942Z,1.63
2022-09-09T03:54:54.424Z,2.40
2022-09-09T03:57:22.948Z,1.80
2022-09-09T03:59:51.243Z,1.90
2022-09-09T04:02:18.845Z,1.75
2022-09-09T04:04:46.485Z,1.92
2022-09-09T04:07:14.212Z,1.67
2022-09-09T04:09:41.907Z,2.10
2022-09-09T04:12:09.924Z,2.10
2022-09-09T04:14:38.019Z,2.10
2022-09-09T04:17:07.355Z,2.03
2022-09-09T04:19:35.363Z,2.20
2022-09-09T04:22:03.515Z,2.05
2022-09-09T04:24:30.998Z,1.70
2022-09-09T04:26:59.903Z,1.90
2022-09-09T04:29:27.879Z,2.10
2022-09-09T04:31:55.837Z,2.20
2022-09-09T04:34:23.602Z,2.38
2022-09-09T04:36:52.655Z,2.97
2022-09-09T04:39:20.879Z,2.20
2022-09-09T04:41:49.549Z,2.53
2022-09-09T04:44:17.231Z,2.25
2022-09-09T04:46:46.101Z,2.80
2022-09-09T04:49:15.318Z,2.10
2022-09-09T04:51:44.348Z,2.42
2022-09-09T04:54:12.721Z,2.50
2022-09-09T04:56:43.476Z,2.35
2022-09-09T04:59:12.125Z,2.67
2022-09-09T05:01:46.869Z,2.40
2022-09-09T05:04:16.294Z,2.92
2022-09-09T05:06:44.161Z,2.10
2022-09-09T05:09:13.389Z,2.20
2022-09-09T05:11:40.916Z,2.63
2022-09-09T05:14:31.159Z,2.72
2022-09-09T05:17:01.202Z,2.25
2022-09-09T05:19:28.976Z,2.35
2022-09-09T05:21:56.595Z,1.90
2022-09-09T05:24:34.106Z,2.40
2022-09-09T05:27:03.442Z,2.25
2022-09-09T05:29:34.360Z,2.90
2022-09-09T05:32:03.290Z,2.58
2022-09-09T05:34:31.142Z,2.17
2022-09-09T05:36:59.353Z,2.15
2022-09-09T05:39:27.362Z,2.28
2022-09-09T05:41:56.608Z,2.67
2022-09-09T05:44:26.043Z,2.38
2022-09-09T05:46:55.497Z,2.95
2022-09-09T05:49:23.573Z,2.83
2022-09-09T05:51:51.835Z,2.40
2022-09-09T05:54:21.097Z,2.50
2022-09-09T05:56:53.734Z,2.25
2022-09-09T05:59:21.812Z,2.33
2022-09-09T06:01:51.999Z,3.13
2022-09-09T06:04:31.741Z,2.50
2022-09-09T06:07:00.879Z,2.22
2022-09-09T06:09:31.521Z,2.80
2022-09-09T06:11:59.282Z,2.08
2022-09-09T06:14:28.371Z,2.03
2022-09-09T06:16:58.928Z,2.67
2022-09-09T06:19:31.792Z,2.20
2022-09-09T06:22:00.590Z,2.25
2022-09-09T06:24:31.276Z,2.72
2022-09-09T06:27:00.118Z,2.30
2022-09-09T06:29:30.918Z,2.55
2022-09-09T06:31:59.277Z,2.85
2022-09-09T06:34:28.284Z,2.42
2022-09-09T06:36:59.386Z,2.60
2022-09-09T06:39:32.239Z,2.87
2022-09-09T06:42:00.148Z,2.15
2022-09-09T06:44:46.361Z,2.10
2022-09-09T06:49:48.930Z,2.40
2022-09-09T06:52:19.202Z,2.28
2022-09-09T06:54:47.879Z,2.75
2022-09-09T07:00:06.431Z,2.83
2022-09-09T07:02:40.048Z,2.83
2022-09-09T07:05:09.244Z,2.13
2022-09-09T07:07:37.688Z,2.17
2022-09-09T07:10:06.193Z,2.05
2022-09-09T07:12:34.644Z,2.60
2022-09-09T07:15:02.528Z,2.08
2022-09-09T07:17:30.228Z,2.42
2022-09-09T07:19:59.815Z,2.35
2022-09-09T07:22:29.558Z,3.05
2022-09-09T07:24:57.835Z,2.35
2022-09-09T07:27:26.779Z,2.70
2022-09-09T07:29:55.378Z,2.40
2022-09-09T07:32:23.020Z,2.33
2022-09-09T07:34:51.627Z,2.05
2022-09-09T07:37:19.353Z,2.92
2022-09-09T07:39:49.165Z,2.00
2022-09-09T07:42:18.050Z,2.08
2022-09-09T07:44:45.915Z,2.15
2022-09-09T07:47:16.238Z,2.28
2022-09-09T07:49:47.317Z,2.33
2022-09-09T07:52:19.648Z,1.70
2022-09-09T07:54:51.960Z,1.87
2022-09-09T07:57:19.752Z,1.77
2022-09-09T07:59:48.303Z,2.03
2022-09-09T08:02:16.774Z,2.63
2022-09-09T08:04:45.352Z,1.90
2022-09-09T08:07:13.462Z,2.33
2022-09-09T08:09:47.695Z,1.70
2022-09-09T08:12:22.550Z,1.95
2022-09-09T08:14:50.142Z,1.63
2022-09-09T08:17:17.666Z,1.73
2022-09-09T08:19:45.621Z,2.20
2022-09-09T08:22:18.283Z,1.85
2022-09-09T08:24:46.216Z,1.85
2022-09-09T08:27:13.946Z,2.42
2022-09-09T08:29:41.686Z,2.25
2022-09-09T08:32:10.069Z,2.40
2022-09-09T08:34:41.313Z,2.00
2022-09-09T08:37:13.663Z,2.03
2022-09-09T08:39:43.083Z,2.22
2022-09-09T08:42:11.183Z,2.05
2022-09-09T08:44:48.616Z,2.38
2022-09-09T08:47:17.183Z,2.13
2022-09-09T08:49:57.204Z,1.70
2022-09-09T08:52:31.893Z,2.33
2022-09-09T08:55:26.277Z,2.15
2022-09-09T08:57:57.996Z,2.22
2022-09-09T09:00:33.906Z,2.03
2022-09-09T09:03:10.259Z,2.15
2022-09-09T09:05:44.569Z,1.95
2022-09-09T09:08:22.317Z,1.73
2022-09-09T09:10:51.637Z,3.33
2022-09-09T09:13:28.758Z,2.38
2022-09-09T09:16:02.271Z,2.10
2022-09-09T09:18:30.222Z,2.67
2022-09-09T09:21:02.094Z,1.80
2022-09-09T09:23:36.527Z,2.20
2022-09-09T09:26:10.647Z,1.88
2022-09-09T09:28:38.658Z,2.40
2022-09-09T09:31:14.680Z,2.63
2022-09-09T09:33:54.110Z,2.40
2022-09-09T09:36:34.760Z,2.00
2022-09-09T09:41:55.365Z,2.25
2022-09-09T09:44:28.745Z,2.03
2022-09-09T09:47:22.182Z,2.33
2022-09-09T09:50:03.322Z,1.98
2022-09-09T09:52:37.809Z,2.20
2022-09-09T09:55:14.970Z,2.30
2022-09-09T09:57:45.719Z,2.53
2022-09-09T10:00:16.549Z,2.00
2022-09-09T10:02:48.324Z,2.10
2022-09-09T10:05:27.070Z,2.25
2022-09-09T10:08:10.197Z,2.22
2022-09-09T10:10:47.444Z,2.20
2022-09-09T10:13:22.279Z,2.10
2022-09-09T10:16:05.508Z,2.55
2022-09-09T10:18:48.527Z,2.22
2022-09-09T10:21:28.840Z,2.50
2022-09-09T10:24:07.938Z,2.15
2022-09-09T10:26:50.989Z,2.30
2022-09-09T10:29:22.422Z,1.90
2022-09-09T10:32:00.287Z,2.13
2022-09-09T10:34:43.081Z,2.20
2022-09-09T10:37:19.751Z,2.00
2022-09-09T10:39:48.978Z,2.25
2022-09-09T10:42:17.902Z,2.15
2022-09-09T10:44:57.482Z,2.03
2022-09-09T10:47:37.406Z,2.10
2022-09-09T10:50:05.016Z,2.15
2022-09-09T10:52:58.905Z,1.98
2022-09-09T10:55:29.876Z,1.90
2022-09-09T10:57:59.537Z,2.03
2022-09-09T11:00:38.044Z,2.10
2022-09-09T11:03:07.771Z,2.63
2022-09-09T11:05:43.228Z,2.92
2022-09-09T11:08:24.932Z,2.30
2022-09-09T11:10:59.839Z,4.45
2022-09-09T11:13:36.604Z,3.85
2022-09-09T11:16:14.883Z,2.78
2022-09-09T11:18:43.678Z,3.45
2022-09-09T11:21:18.565Z,3.63
2022-09-09T11:23:48.243Z,3.47
2022-09-09T11:26:22.487Z,3.17
2022-09-09T11:28:52.949Z,2.65
2022-09-09T11:31:43.076Z,2.65
2022-09-09T11:34:25.279Z,2.55
2022-09-09T11:36:55.959Z,3.83
2022-09-09T11:39:32.829Z,2.78
2022-09-09T11:42:17.437Z,2.00
2022-09-09T11:44:45.130Z,2.00
2022-09-09T11:47:22.834Z,1.80
2022-09-09T11:49:50.727Z,2.20
2022-09-09T11:52:23.493Z,2.45
2022-09-09T11:54:51.679Z,4.43
2022-09-09T11:57:34.430Z,2.90
2022-09-09T12:00:02.051Z,1.70
2022-09-09T12:02:50.954Z,2.50
2022-09-09T12:05:20.977Z,1.92
2022-09-09T12:07:54.841Z,1.60
2022-09-09T12:10:22.475Z,1.77
2022-09-09T12:12:50.030Z,1.80
2022-09-09T12:15:18.278Z,1.52
2022-09-09T12:17:47.620Z,1.85
2022-09-09T12:20:15.261Z,1.80
2022-09-09T12:22:48.680Z,2.05
2022-09-09T12:25:18.284Z,1.98
2022-09-09T12:27:58.457Z,4.70
2022-09-09T12:30:31.203Z,2.83
2022-09-09T12:33:10.949Z,2.72
2022-09-09T12:35:39.667Z,3.10
2022-09-09T12:38:10.441Z,2.15
2022-09-09T12:40:38.033Z,2.10
2022-09-09T12:43:22.689Z,2.00
2022-09-09T12:45:57.634Z,2.20
2022-09-09T12:48:29.072Z,2.40
2022-09-09T12:50:57.314Z,2.65
2022-09-09T12:53:27.528Z,2.63
2022-09-09T12:55:58.408Z,2.70
2022-09-09T12:58:26.449Z,2.65
2022-09-09T13:00:57.485Z,2.40
2022-09-09T13:03:28.642Z,1.60
2022-09-09T13:06:01.355Z,1.75
2022-09-09T13:08:29.143Z,2.30
2022-09-09T13:11:03.273Z,1.90
2022-09-09T13:13:34.177Z,1.70
2022-09-09T13:16:02.540Z,1.65
2022-09-09T13:18:35.411Z,1.90
2022-09-09T13:21:03.042Z,2.80
2022-09-09T13:23:36.141Z,2.63
2022-09-09T13:26:08.749Z,2.70
2022-09-09T13:28:36.634Z,3.40
2022-09-09T13:31:20.523Z,3.30
2022-09-09T13:33:48.056Z,3.47
2022-09-09T13:36:15.545Z,3.20
2022-09-09T13:38:56.739Z,2.35
2022-09-09T13:41:25.664Z,2.50
2022-09-09T13:43:54.108Z,2.10
2022-09-09T13:46:28.576Z,2.47
2022-09-09T13:48:57.175Z,2.35
2022-09-09T13:51:34.630Z,2.10
2022-09-09T13:54:02.515Z,2.00
2022-09-09T13:56:30.089Z,2.28
2022-09-09T13:58:59.461Z,2.13
2022-09-09T14:01:29.742Z,2.38
2022-09-09T14:03:57.720Z,2.28
2022-09-09T14:06:25.578Z,1.98
2022-09-09T14:08:53.258Z,3.42
2022-09-09T14:11:22.384Z,2.80
2022-09-09T14:13:53.345Z,2.90
2022-09-09T14:16:22.885Z,2.60
2022-09-09T14:18:50.632Z,2.25
2022-09-09T14:21:18.220Z,2.28
2022-09-09T14:23:45.870Z,2.42
2022-09-09T14:26:14.281Z,2.55
2022-09-09T14:28:57.821Z,2.70
2022-09-09T14:31:26.160Z,2.85
2022-09-09T14:33:53.904Z,2.42
2022-09-09T14:36:21.591Z,2.28
2022-09-09T14:38:49.320Z,1.80
2022-09-09T14:41:17.961Z,1.67
2022-09-09T14:43:46.004Z,1.67
2022-09-09T14:46:18.667Z,1.30
2022-09-09T14:48:46.505Z,1.48
2022-09-09T14:51:16.775Z,2.08
2022-09-09T14:53:45.080Z,2.50
2022-09-09T14:56:15.402Z,2.03
2022-09-09T14:58:42.632Z,2.00
2022-09-09T15:01:12.417Z,2.28
2022-09-09T15:03:41.194Z,2.33
2022-09-09T15:06:15.253Z,2.50
2022-09-09T15:08:44.732Z,2.08
2022-09-09T15:11:13.815Z,2.10
2022-09-09T15:13:42.536Z,1.92
2022-09-09T15:16:18.506Z,1.70
2022-09-09T15:18:47.233Z,1.50
2022-09-09T15:21:17.224Z,1.50
2022-09-09T15:23:44.629Z,2.03
2022-09-09T15:26:15.062Z,2.65
2022-09-09T15:28:44.677Z,2.60
2022-09-09T15:31:23.514Z,2.60
2022-09-09T15:34:04.219Z,2.75
2022-09-09T15:36:35.966Z,3.00
2022-09-09T15:39:04.724Z,2.45
2022-09-09T15:41:34.867Z,2.38
2022-09-09T15:44:03.005Z,2.08
2022-09-09T15:46:38.865Z,2.00
2022-09-09T15:49:10.228Z,2.13
2022-09-09T15:51:44.429Z,2.70
2022-09-09T15:56:41.427Z,3.00
2022-09-09T15:59:08.511Z,3.00
2022-09-09T16:01:37.124Z,2.50
2022-09-09T16:04:04.954Z,3.45
2022-09-09T16:06:32.731Z,2.40
2022-09-09T16:09:02.086Z,2.90
2022-09-09T16:11:36.053Z,2.15
2022-09-09T16:14:05.055Z,2.60
2022-09-09T16:16:32.392Z,4.13
2022-09-09T16:19:02.441Z,2.63
2022-09-09T16:21:32.443Z,2.22
2022-09-09T16:24:01.475Z,1.90
2022-09-09T16:26:29.849Z,2.25
2022-09-09T16:29:00.191Z,1.50
2022-09-09T16:31:28.641Z,2.33
2022-09-09T16:33:59.129Z,1.75
2022-09-09T16:36:28.826Z,2.10
2022-09-09T16:38:58.512Z,1.98
2022-09-09T16:41:27.835Z,1.95
2022-09-09T16:43:56.508Z,1.75
2022-09-09T16:46:25.497Z,1.70
2022-09-09T16:48:53.065Z,1.60
2022-09-09T16:51:28.947Z,1.73
2022-09-09T16:53:58.802Z,1.90
2022-09-09T16:56:27.942Z,2.25
2022-09-09T16:58:57.488Z,1.30
2022-09-09T17:01:32.737Z,1.73
2022-09-09T17:04:03.134Z,1.95
2022-09-09T17:06:42.308Z,2.55
2022-09-09T17:09:11.973Z,3.50
2022-09-09T17:11:40.414Z,2.28
2022-09-09T17:14:10.336Z,2.28
2022-09-09T17:16:40.427Z,1.80
2022-09-09T17:19:10.006Z,2.28
2022-09-09T17:21:49.573Z,1.67
2022-09-09T17:24:26.387Z,2.60
2022-09-09T17:26:55.361Z,2.50
2022-09-09T17:29:23.012Z,3.28
2022-09-09T17:31:50.736Z,3.70
2022-09-09T17:34:18.005Z,2.55
2022-09-09T17:36:45.184Z,2.30
2022-09-09T17:39:12.276Z,2.55
2022-09-09T17:41:40.511Z,3.28
2022-09-09T17:46:43.169Z,2.40
2022-09-09T17:49:16.051Z,2.88
2022-09-09T17:51:45.007Z,4.65
2022-09-09T17:54:17.290Z,3.97
2022-09-09T17:56:45.199Z,3.58
2022-09-09T17:59:13.604Z,2.80
2022-09-09T18:01:47.107Z,2.20
2022-09-09T18:04:16.900Z,2.53
2022-09-09T18:06:49.487Z,2.38
2022-09-09T18:09:20.602Z,2.20
2022-09-09T18:11:50.547Z,1.80
2022-09-09T18:14:21.439Z,1.73
2022-09-09T18:16:49.354Z,1.85
2022-09-09T18:19:19.890Z,2.17
2022-09-09T18:21:47.943Z,2.17
2022-09-09T18:24:17.770Z,2.08
2022-09-09T18:26:45.679Z,2.03
2022-09-09T18:29:16.188Z,1.98
2022-09-09T18:31:43.931Z,1.73
2022-09-09T18:34:12.843Z,2.10
2022-09-09T18:36:55.217Z,1.80
2022-09-09T18:39:25.575Z,1.95
2022-09-09T18:41:55.326Z,2.00
2022-09-09T18:44:24.785Z,1.50
2022-09-09T18:46:52.637Z,1.85
2022-09-09T18:49:21.803Z,2.33
2022-09-09T18:51:49.352Z,2.00
2022-09-09T18:54:19.567Z,2.25
2022-09-09T18:56:47.326Z,2.00
2022-09-09T18:59:19.181Z,3.53
2022-09-09T19:01:47.622Z,1.77
2022-09-09T19:04:15.430Z,1.95
2022-09-09T19:06:46.391Z,2.22
2022-09-09T19:09:15.206Z,2.00
2022-09-09T19:11:43.308Z,2.28
2022-09-09T19:14:12.559Z,2.25
2022-09-09T19:16:40.738Z,2.05
2022-09-09T19:19:20.756Z,1.52
2022-09-09T19:21:48.297Z,1.85
2022-09-09T19:24:17.856Z,1.75
2022-09-09T19:26:46.500Z,2.20
2022-09-09T19:29:15.782Z,1.65
2022-09-09T19:31:55.384Z,2.08
2022-09-09T19:34:29.956Z,2.63
2022-09-09T19:36:58.410Z,1.90
2022-09-09T19:39:26.573Z,2.00
2022-09-09T19:41:54.034Z,1.92
2022-09-09T19:44:22.632Z,2.08
2022-09-09T19:46:50.166Z,1.88
2022-09-09T19:49:18.211Z,1.73
2022-09-09T19:51:46.904Z,1.50
2022-09-09T19:54:15.125Z,1.80
2022-09-09T19:56:43.686Z,5.15
2022-09-09T19:59:12.662Z,4.00
2022-09-09T20:01:41.750Z,1.80
2022-09-09T20:04:09.689Z,1.58
2022-09-09T20:06:38.681Z,1.52
2022-09-09T20:09:07.080Z,1.98
2022-09-09T20:11:35.049Z,1.98
2022-09-09T20:14:03.501Z,2.55
2022-09-09T20:16:31.961Z,2.33
2022-09-09T20:19:01.176Z,2.20
2022-09-09T20:21:33.304Z,2.25
2022-09-09T20:24:01.532Z,2.10
2022-09-09T20:26:32.335Z,2.00
2022-09-09T20:28:59.959Z,2.17
2022-09-09T20:31:28.856Z,2.58
2022-09-09T20:33:57.680Z,1.83
2022-09-09T20:36:29.245Z,2.22
2022-09-09T20:39:05.093Z,1.90
2022-09-09T20:41:33.248Z,2.17
2022-09-09T20:44:04.414Z,2.33
2022-09-09T20:46:33.426Z,1.95
2022-09-09T20:49:03.240Z,2.25
2022-09-09T20:51:33.160Z,2.22
2022-09-09T20:54:03.911Z,1.48
2022-09-09T20:56:37.107Z,1.60
2022-09-09T20:59:05.225Z,1.90
2022-09-09T21:01:32.883Z,2.10
2022-09-09T21:04:00.432Z,1.80
2022-09-09T21:06:28.031Z,1.88
2022-09-09T21:08:55.619Z,1.90
2022-09-09T21:11:24.363Z,1.77
2022-09-09T21:13:52.035Z,1.85
2022-09-09T21:16:21.369Z,1.83
2022-09-09T21:18:49.838Z,2.60
2022-09-09T21:21:19.392Z,2.28
2022-09-09T21:23:47.476Z,2.35
2022-09-09T21:26:15.008Z,2.25
2022-09-09T21:28:42.589Z,2.20
2022-09-09T21:31:14.458Z,2.50
2022-09-09T21:33:43.076Z,2.72
2022-09-09T21:36:12.173Z,2.35
2022-09-09T21:38:40.708Z,2.85
2022-09-09T21:41:09.442Z,2.28
2022-09-09T21:43:36.933Z,2.78
2022-09-09T21:46:07.874Z,2.72
2022-09-09T21:48:35.611Z,3.08
2022-09-09T21:51:04.704Z,2.85
2022-09-09T21:53:32.767Z,3.40
2022-09-09T21:56:12.214Z,2.88
2022-09-09T21:58:41.775Z,3.35
2022-09-09T22:01:13.280Z,2.85
2022-09-09T22:03:42.571Z,3.22
2022-09-09T22:06:12.159Z,2.70
2022-09-09T22:08:39.798Z,2.92
2022-09-09T22:11:11.918Z,2.65
2022-09-09T22:13:39.458Z,2.90
2022-09-09T22:16:08.143Z,2.92
2022-09-09T22:18:36.762Z,3.50
2022-09-09T22:21:12.399Z,3.50
2022-09-09T22:23:39.957Z,3.30
2022-09-09T22:26:08.107Z,3.40
2022-09-09T22:28:36.059Z,3.88
2022-09-09T22:31:03.735Z,3.17
2022-09-09T22:33:31.424Z,3.75
2022-09-09T22:35:59.453Z,3.92
2022-09-09T22:38:27.142Z,3.67
2022-09-09T22:40:54.943Z,3.47
2022-09-09T22:43:22.914Z,3.25
2022-09-09T22:45:51.101Z,2.88
2022-09-09T22:48:19.165Z,3.15
2022-09-09T22:50:47.463Z,3.78
2022-09-09T22:53:15.667Z,3.50
2022-09-09T22:55:43.858Z,4.28
2022-09-09T22:58:12.031Z,4.63
2022-09-09T23:00:41.818Z,4.57
2022-09-09T23:03:09.405Z,4.32
2022-09-09T23:05:38.531Z,4.55
2022-09-09T23:08:06.235Z,4.78
2022-09-09T23:10:33.791Z,4.75
2022-09-09T23:13:01.749Z,4.93
2022-09-09T23:15:31.425Z,4.50
2022-09-09T23:17:59.033Z,4.15
2022-09-09T23:20:26.894Z,4.70
2022-09-09T23:22:54.773Z,4.20
2022-09-09T23:25:22.896Z,4.47
2022-09-09T23:27:50.473Z,4.80
2022-09-09T23:30:18.333Z,5.00
2022-09-09T23:32:46.967Z,4.93
2022-09-09T23:35:14.556Z,4.88
2022-09-09T23:37:42.149Z,4.38
2022-09-09T23:40:09.821Z,4.03
2022-09-09T23:42:37.343Z,4.15
2022-09-09T23:45:05.098Z,4.63
2022-09-09T23:47:32.574Z,4.40
2022-09-09T23:50:00.115Z,4.10
2022-09-09T23:52:27.635Z,4.40
2022-09-09T23:54:56.547Z,4.60
2022-09-09T23:57:24.495Z,5.60
2022-09-09T23:59:52.279Z,4.95
